createdAt,value
2023-03-06T00:00:15.052Z,57
2023-03-06T00:05:31.603Z,60
2023-03-06T00:10:47.933Z,58
2023-03-06T00:16:04.080Z,58
2023-03-06T00:21:20.473Z,54
2023-03-06T00:26:37.527Z,58
2023-03-06T00:31:54.409Z,56
2023-03-06T00:37:11.106Z,58
2023-03-06T00:42:27.514Z,59
2023-03-06T00:47:44.434Z,53
2023-03-06T00:53:00.885Z,54
2023-03-06T00:58:17.350Z,51
2023-03-06T01:03:34.308Z,59
2023-03-06T01:08:50.717Z,49
2023-03-06T01:14:06.921Z,56
2023-03-06T01:19:23.422Z,54
2023-03-06T01:24:40.378Z,45
2023-03-06T01:29:56.762Z,42
2023-03-06T01:35:13.190Z,41
2023-03-06T01:40:29.975Z,45
2023-03-06T01:45:46.141Z,39
2023-03-06T01:51:02.506Z,43
2023-03-06T01:56:19.255Z,39
2023-03-06T02:01:35.638Z,36
2023-03-06T02:06:52.009Z,33
2023-03-06T02:12:08.988Z,32
2023-03-06T02:17:25.975Z,35
2023-03-06T02:22:42.912Z,39
2023-03-06T02:27:59.347Z,32
2023-03-06T02:33:15.742Z,25
2023-03-06T02:38:32.125Z,32
2023-03-06T02:43:48.506Z,28
2023-03-06T02:49:04.864Z,26
2023-03-06T02:54:21.274Z,37
2023-03-06T02:59:37.670Z,34
2023-03-06T03:04:54.073Z,26
2023-03-06T03:10:10.424Z,30
2023-03-06T03:15:27.349Z,32
2023-03-06T03:20:43.758Z,29
2023-03-06T03:26:00.130Z,36
2023-03-06T03:31:16.589Z,31
2023-03-06T03:36:32.889Z,30
2023-03-06T03:41:49.314Z,23
2023-03-06T03:47:05.711Z,24
2023-03-06T03:52:22.081Z,31
2023-03-06T03:57:38.502Z,26
2023-03-06T04:02:54.853Z,28
2023-03-06T04:08:11.273Z,25
2023-03-06T04:13:27.664Z,28
2023-03-06T04:18:44.043Z,21
2023-03-06T04:24:00.421Z,27
2023-03-06T04:29:16.840Z,25
2023-03-06T04:34:33.215Z,25
2023-03-06T04:39:49.596Z,19
2023-03-06T04:45:06.027Z,26
2023-03-06T04:50:22.396Z,29
2023-03-06T04:55:38.826Z,31
2023-03-06T05:00:55.311Z,28
2023-03-06T05:06:11.589Z,31
2023-03-06T05:11:28.000Z,32
2023-03-06T05:16:44.177Z,36
2023-03-06T05:22:00.510Z,33
2023-03-06T05:27:17.261Z,33
2023-03-06T05:32:35.581Z,36
2023-03-06T05:37:50.019Z,37
2023-03-06T05:43:06.780Z,42
2023-03-06T05:48:23.174Z,36
2023-03-06T05:53:39.631Z,39
2023-03-06T05:58:56.078Z,38
2023-03-06T06:04:12.430Z,39
2023-03-06T06:09:29.496Z,37
2023-03-06T06:14:45.912Z,34
2023-03-06T06:20:02.084Z,67
2023-03-06T06:25:18.743Z,56
2023-03-06T06:30:34.876Z,40
2023-03-06T06:35:51.336Z,38
2023-03-06T06:41:31.209Z,44
2023-03-06T06:47:05.850Z,55
2023-03-06T06:51:40.520Z,31
2023-03-06T06:56:57.156Z,41
2023-03-06T07:02:13.520Z,31
2023-03-06T07:07:29.948Z,26
2023-03-06T07:12:46.362Z,27
2023-03-06T07:18:03.542Z,50
2023-03-06T07:23:19.923Z,30
2023-03-06T07:28:51.230Z,24
2023-03-06T07:33:52.909Z,22
2023-03-06T07:39:09.293Z,20
2023-03-06T07:44:25.717Z,31
2023-03-06T07:49:42.083Z,38
2023-03-06T07:54:58.513Z,45
2023-03-06T08:00:14.962Z,32
2023-03-06T08:05:31.333Z,25
2023-03-06T08:10:47.701Z,31
2023-03-06T08:16:04.206Z,24
2023-03-06T08:21:20.503Z,33
2023-03-06T08:26:36.691Z,32
2023-03-06T08:31:53.077Z,29
2023-03-06T08:37:09.427Z,32
2023-03-06T08:42:25.812Z,32
2023-03-06T08:47:42.766Z,32
2023-03-06T08:52:59.147Z,25
2023-03-06T08:58:15.550Z,25
2023-03-06T09:03:31.902Z,25
2023-03-06T09:08:48.297Z,32
2023-03-06T09:14:05.224Z,41
2023-03-06T09:19:21.786Z,33
2023-03-06T09:24:38.592Z,36
2023-03-06T09:29:55.541Z,37
2023-03-06T09:35:11.898Z,26
2023-03-06T09:40:28.304Z,26
2023-03-06T09:45:45.562Z,31
2023-03-06T09:51:01.830Z,25
2023-03-06T09:56:18.256Z,30
2023-03-06T10:01:34.609Z,31
2023-03-06T10:06:51.009Z,26
2023-03-06T10:12:07.420Z,30
2023-03-06T10:17:23.820Z,45
2023-03-06T10:22:40.206Z,35
2023-03-06T10:27:56.606Z,32
2023-03-06T10:33:12.946Z,35
2023-03-06T10:38:29.349Z,42
2023-03-06T10:43:45.765Z,53
2023-03-06T10:49:02.505Z,40
2023-03-06T10:54:18.912Z,40
2023-03-06T10:59:35.324Z,42
2023-03-06T11:04:51.765Z,43
2023-03-06T11:10:08.706Z,41
2023-03-06T11:15:24.948Z,41
2023-03-06T11:20:50.860Z,38
2023-03-06T11:25:57.752Z,38
2023-03-06T11:31:14.171Z,42
2023-03-06T11:36:30.271Z,46
2023-03-06T11:41:46.721Z,45
2023-03-06T11:47:03.159Z,47
2023-03-06T11:52:19.790Z,51
2023-03-06T11:57:36.817Z,50
2023-03-06T12:02:53.271Z,44
2023-03-06T12:08:09.719Z,48
2023-03-06T12:13:26.622Z,55
2023-03-06T12:18:43.039Z,54
2023-03-06T12:23:59.752Z,57
2023-03-06T12:29:16.538Z,46
2023-03-06T12:34:33.004Z,43
2023-03-06T12:39:49.324Z,38
2023-03-06T12:45:05.783Z,37
2023-03-06T12:50:22.390Z,50
2023-03-06T12:55:38.840Z,57
2023-03-06T13:01:03.610Z,46
2023-03-06T13:06:11.930Z,45
2023-03-06T13:11:28.363Z,37
2023-03-06T13:16:44.782Z,38
2023-03-06T13:22:01.723Z,43
2023-03-06T13:27:17.911Z,42
2023-03-06T13:32:34.346Z,34
2023-03-06T13:37:50.752Z,32
2023-03-06T13:43:07.104Z,32
2023-03-06T13:48:43.261Z,30
2023-03-06T13:53:40.102Z,37
2023-03-06T13:58:56.306Z,31
2023-03-06T14:04:12.676Z,32
2023-03-06T14:09:29.095Z,37
2023-03-06T14:14:45.537Z,42
2023-03-06T14:20:02.452Z,55
2023-03-06T14:25:18.887Z,38
2023-03-06T14:30:35.242Z,30
2023-03-06T14:35:51.752Z,31
2023-03-06T14:41:07.847Z,38
2023-03-06T14:46:24.285Z,40
2023-03-06T14:51:41.016Z,46
2023-03-06T14:56:57.452Z,51
2023-03-06T15:02:13.821Z,38
2023-03-06T15:07:30.814Z,36
2023-03-06T15:12:47.178Z,44
2023-03-06T15:18:03.902Z,58
2023-03-06T15:23:20.330Z,42
2023-03-06T15:28:36.754Z,40
2023-03-06T15:33:53.124Z,37
2023-03-06T15:39:09.555Z,34
2023-03-06T15:44:25.944Z,33
2023-03-06T15:49:42.352Z,39
2023-03-06T15:54:58.814Z,46
2023-03-06T16:00:27.031Z,58
2023-03-06T16:05:32.739Z,56
2023-03-06T16:11:44.052Z,60
2023-03-06T16:16:57.282Z,40
2023-03-06T16:22:13.666Z,36
2023-03-06T16:27:30.398Z,35
2023-03-06T16:32:47.580Z,42
2023-03-06T16:38:03.957Z,39
2023-03-06T16:43:20.381Z,38
2023-03-06T16:48:37.366Z,44
2023-03-06T16:53:53.750Z,42
2023-03-06T16:59:10.185Z,46
2023-03-06T17:04:26.716Z,39
2023-03-06T17:09:43.114Z,31
2023-03-06T17:14:59.398Z,27
2023-03-06T17:20:15.820Z,33
2023-03-06T17:25:32.187Z,35
2023-03-06T17:30:48.621Z,32
2023-03-06T17:36:05.014Z,31
2023-03-06T17:41:21.383Z,33
2023-03-06T17:46:37.874Z,32
2023-03-06T17:51:54.255Z,59
2023-03-06T17:57:10.692Z,68
2023-03-06T18:02:26.930Z,68
2023-03-06T18:07:43.864Z,58
2023-03-06T18:13:00.270Z,51
2023-03-06T18:18:16.476Z,44
2023-03-06T18:23:32.864Z,36
2023-03-06T18:28:49.760Z,34
2023-03-06T18:34:06.170Z,37
2023-03-06T18:39:23.187Z,51
2023-03-06T18:44:39.633Z,47
2023-03-06T18:49:56.115Z,48
2023-03-06T18:55:13.067Z,50
2023-03-06T19:00:29.990Z,52
2023-03-06T19:05:46.256Z,46
2023-03-06T19:11:03.070Z,47
2023-03-06T19:16:19.319Z,60
2023-03-06T19:21:35.726Z,57
2023-03-06T19:26:51.905Z,46
2023-03-06T19:32:08.475Z,63
2023-03-06T19:37:25.225Z,55
2023-03-06T19:42:41.652Z,56
2023-03-06T19:47:57.841Z,54
2023-03-06T19:53:14.270Z,64
2023-03-06T19:58:30.733Z,55
2023-03-06T20:03:47.140Z,58
2023-03-06T20:09:03.573Z,58
2023-03-06T20:14:20.255Z,55
2023-03-06T20:19:36.380Z,43
2023-03-06T20:24:52.982Z,38
2023-03-06T20:30:09.397Z,42
2023-03-06T20:35:25.898Z,38
2023-03-06T20:40:42.348Z,52
2023-03-06T20:45:58.546Z,55
2023-03-06T20:51:14.920Z,64
2023-03-06T20:56:31.349Z,53
2023-03-06T21:01:47.809Z,37
2023-03-06T21:07:04.142Z,39
2023-03-06T21:12:20.299Z,40
2023-03-06T21:17:36.705Z,49
2023-03-06T21:22:53.151Z,48
2023-03-06T21:28:09.582Z,49
2023-03-06T21:33:26.555Z,55
2023-03-06T21:38:43.097Z,59
2023-03-06T21:43:59.918Z,46
2023-03-06T21:49:16.916Z,48
2023-03-06T21:54:33.783Z,52
2023-03-06T21:59:49.915Z,51
2023-03-06T22:05:06.411Z,44
2023-03-06T22:10:23.005Z,55
2023-03-06T22:15:39.395Z,52
2023-03-06T22:20:55.882Z,46
2023-03-06T22:26:12.754Z,53
2023-03-06T22:31:29.222Z,42
2023-03-06T22:36:45.497Z,46
2023-03-06T22:42:01.686Z,56
2023-03-06T22:47:18.070Z,36
2023-03-06T22:52:34.461Z,39
2023-03-06T22:57:50.896Z,35
2023-03-06T23:03:07.278Z,31
2023-03-06T23:08:23.653Z,28
2023-03-06T23:13:40.080Z,30
2023-03-06T23:18:56.468Z,26
2023-03-06T23:24:12.834Z,34
2023-03-06T23:29:29.248Z,32
2023-03-06T23:34:45.597Z,33
2023-03-06T23:40:01.984Z,28
2023-03-06T23:45:18.412Z,20
2023-03-06T23:50:34.987Z,22
2023-03-06T23:55:51.387Z,23
